Time;durP1;ratioP1;P1;durP2;ratioP2;P2;SDS_P1;SDS_P2;PMS_P1;PMS_P2;Temp;Humidity;BMP_temperature;BMP_pressure;BME280_temperature;BME280_humidity;BME280_pressure;Samples;Min_cycle;Max_cycle;Signal;HPM_P1;HPM_P2
2023/01/04 00:00:33;;;;;;;8.25;6.47;;;8.00;88.30;;;;;;4980518;28;20035;-60
2023/01/04 00:02:59;;;;;;;10.68;6.70;;;8.00;88.30;;;;;;4982056;28;20093;-61
2023/01/04 00:05:24;;;;;;;8.55;6.70;;;8.10;88.30;;;;;;4983374;28;20077;-60
2023/01/04 00:07:50;;;;;;;8.10;6.57;;;8.10;88.30;;;;;;4979496;28;20045;-59
2023/01/04 00:10:15;;;;;;;8.05;6.45;;;8.10;88.30;;;;;;4983323;28;20042;-60
2023/01/04 00:12:41;;;;;;;9.23;6.63;;;8.10;89.00;;;;;;4975599;28;20030;-60
2023/01/04 00:15:07;;;;;;;9.05;6.65;;;8.10;88.10;;;;;;4982142;28;20066;-61
2023/01/04 00:17:33;;;;;;;8.75;5.90;;;8.10;88.10;;;;;;4976967;28;20787;-62
2023/01/04 00:19:58;;;;;;;7.93;6.20;;;8.10;88.10;;;;;;4977942;28;20138;-60
2023/01/04 00:22:24;;;;;;;9.85;6.35;;;8.20;88.10;;;;;;4980258;28;20517;-62
2023/01/04 00:24:49;;;;;;;8.20;6.18;;;8.20;88.00;;;;;;4978518;28;20089;-63
2023/01/04 00:27:15;;;;;;;7.55;6.22;;;8.20;87.90;;;;;;4981582;28;20034;-62
2023/01/04 00:29:41;;;;;;;7.78;5.97;;;8.20;87.80;;;;;;4978490;28;20034;-62
2023/01/04 00:32:06;;;;;;;7.47;6.03;;;8.20;87.70;;;;;;4981090;28;20038;-60
2023/01/04 00:34:32;;;;;;;8.27;6.05;;;8.20;87.60;;;;;;4981433;28;20042;-62
2023/01/04 00:36:57;;;;;;;8.45;6.25;;;8.20;87.40;;;;;;4980539;28;20050;-61
2023/01/04 00:39:23;;;;;;;8.73;6.43;;;8.20;87.20;;;;;;4978420;28;20031;-62
2023/01/04 00:41:51;;;;;;;8.52;6.45;;;8.20;87.10;;;;;;4980460;28;20038;-59
2023/01/04 00:44:17;;;;;;;10.73;6.93;;;8.20;86.90;;;;;;4984774;28;20129;-60
2023/01/04 00:46:43;;;;;;;10.95;6.10;;;8.20;86.70;;;;;;4983763;28;20513;-60
2023/01/04 00:49:11;;;;;;;10.15;6.00;;;8.20;86.60;;;;;;4982873;28;20526;-60
2023/01/04 00:51:39;;;;;;;9.00;6.65;;;8.20;86.50;;;;;;4978332;28;20034;-61
2023/01/04 00:54:11;;;;;;;9.60;6.85;;;8.20;86.30;;;;;;4980456;28;20037;-61
2023/01/04 00:56:37;;;;;;;8.13;6.50;;;8.10;85.90;;;;;;4980340;28;20482;-62
2023/01/04 00:59:03;;;;;;;9.25;6.28;;;8.10;85.50;;;;;;4980232;28;20041;-61
2023/01/04 01:01:31;;;;;;;8.57;6.30;;;8.00;85.20;;;;;;4978578;28;20551;-59
2023/01/04 01:04:01;;;;;;;8.40;6.40;;;8.00;85.10;;;;;;4981520;28;20038;-60
2023/01/04 01:06:29;;;;;;;8.60;6.30;;;8.00;85.20;;;;;;4979729;28;20043;-61
2023/01/04 01:08:55;;;;;;;8.30;6.03;;;7.90;85.20;;;;;;4979852;28;20045;-62
2023/01/04 01:11:21;;;;;;;8.57;6.00;;;7.90;85.20;;;;;;4974219;28;20069;-60
2023/01/04 01:13:47;;;;;;;6.88;5.68;;;7.90;85.10;;;;;;4981854;28;20450;-62
2023/01/04 01:16:15;;;;;;;11.40;5.90;;;7.80;84.80;;;;;;4981176;28;20554;-59
2023/01/04 01:18:43;;;;;;;7.50;6.25;;;7.80;84.60;;;;;;4978246;28;20060;-62
2023/01/04 01:21:14;;;;;;;7.05;5.53;;;7.70;84.60;;;;;;4980879;28;20038;-62
2023/01/04 01:23:42;;;;;;;8.77;6.10;;;7.70;84.50;;;;;;4979063;28;20569;-62
2023/01/04 01:26:11;;;;;;;6.90;5.97;;;7.70;84.60;;;;;;4975191;28;20096;-59
2023/01/04 01:28:36;;;;;;;9.88;6.65;;;7.60;84.80;;;;;;4978855;28;20414;-62
2023/01/04 01:31:20;;;;;;;8.52;6.80;;;7.60;85.00;;;;;;4980047;28;20027;-59
2023/01/04 01:33:48;;;;;;;8.02;6.47;;;7.60;85.50;;;;;;4979485;28;20035;-61
2023/01/04 01:36:15;;;;;;;8.77;6.80;;;7.60;85.70;;;;;;4980615;28;20089;-59
2023/01/04 01:38:41;;;;;;;10.15;7.35;;;7.60;86.00;;;;;;4980812;28;20054;-62
2023/01/04 01:41:26;;;;;;;10.20;7.07;;;7.60;87.10;;;;;;4978232;28;20030;-60
2023/01/04 01:43:51;;;;;;;10.43;6.95;;;7.50;86.50;;;;;;4981802;28;20041;-59
2023/01/04 01:46:25;;;;;;;10.63;7.65;;;7.50;86.50;;;;;;4984868;28;20042;-60
2023/01/04 01:48:55;;;;;;;9.83;7.27;;;7.50;86.60;;;;;;4987462;28;20045;-61
2023/01/04 01:51:21;;;;;;;9.55;6.78;;;7.50;86.60;;;;;;4986064;28;20042;-63
2023/01/04 01:53:57;;;;;;;11.27;7.00;;;7.50;86.60;;;;;;4987839;28;20038;-60
2023/01/04 01:56:25;;;;;;;10.68;7.72;;;7.50;86.70;;;;;;4986876;28;20043;-59
2023/01/04 01:58:52;;;;;;;9.77;7.50;;;7.50;86.60;;;;;;4983583;28;20034;-57
2023/01/04 02:01:18;;;;;;;9.98;7.07;;;7.50;86.70;;;;;;4980102;28;20080;-59
2023/01/04 02:03:44;;;;;;;9.90;6.93;;;7.50;86.80;;;;;;4983580;28;20077;-59
2023/01/04 02:06:13;;;;;;;9.07;7.05;;;7.50;87.10;;;;;;4982163;28;20085;-61
2023/01/04 02:08:41;;;;;;;9.30;6.82;;;7.50;87.10;;;;;;4984823;28;20030;-61
2023/01/04 02:11:07;;;;;;;10.00;7.57;;;7.50;87.30;;;;;;4977635;28;20038;-59
2023/01/04 02:16:42;;;;;;;9.80;7.10;;;7.50;87.80;;;;;;4981695;28;20062;-60
2023/01/04 02:19:10;;;;;;;10.15;7.38;;;7.50;88.00;;;;;;4983263;28;20525;-62
2023/01/04 02:21:36;;;;;;;10.30;7.40;;;7.40;87.90;;;;;;4982813;28;20045;-62
2023/01/04 02:24:16;;;;;;;9.75;7.30;;;7.50;87.90;;;;;;4982608;28;20030;-62
2023/01/04 02:27:11;;;;;;;10.88;7.65;;;7.50;88.10;;;;;;4983607;28;20038;-62
2023/01/04 02:30:11;;;;;;;10.98;7.93;;;7.50;88.10;;;;;;4986122;28;20045;-63
2023/01/04 02:32:52;;;;;;;10.57;7.88;;;7.50;88.60;;;;;;4973356;28;20409;-62
2023/01/04 02:35:29;;;;;;;11.95;8.02;;;7.50;88.00;;;;;;4981446;28;20034;-62
2023/01/04 02:38:00;;;;;;;11.75;8.43;;;7.60;88.50;;;;;;4984806;28;20217;-59
2023/01/04 02:40:47;;;;;;;13.70;8.73;;;7.60;88.30;;;;;;4981824;28;20035;-62
2023/01/04 02:46:14;;;;;;;10.90;8.27;;;7.60;88.30;;;;;;4985820;28;20036;-62
2023/01/04 02:51:32;;;;;;;12.55;8.32;;;7.70;88.20;;;;;;4986964;28;20046;-59
2023/01/04 02:54:05;;;;;;;12.73;8.17;;;7.70;88.30;;;;;;4985803;28;20046;-62
2023/01/04 02:56:56;;;;;;;12.27;8.63;;;7.70;88.10;;;;;;4983960;28;20035;-62
2023/01/04 02:59:40;;;;;;;12.73;8.02;;;7.70;88.20;;;;;;4978700;28;20037;-62
2023/01/04 03:08:40;;;;;;;13.32;8.68;;;7.80;88.30;;;;;;4982436;28;20775;-59
2023/01/04 03:14:01;;;;;;;12.02;8.38;;;7.80;88.10;;;;;;4983884;28;20062;-60
2023/01/04 03:16:29;;;;;;;11.23;8.27;;;7.80;88.10;;;;;;4980505;28;20129;-61
2023/01/04 03:19:03;;;;;;;12.52;8.88;;;7.80;88.10;;;;;;4984419;28;20506;-60
2023/01/04 03:21:31;;;;;;;11.75;8.10;;;7.80;88.20;;;;;;4980877;28;20111;-61
2023/01/04 03:35:53;;;;;;;10.77;8.02;;;7.80;88.00;;;;;;4981477;28;20136;-59
2023/01/04 03:50:31;;;;;;;12.70;8.53;;;7.90;87.80;;;;;;4980897;28;20049;-58
2023/01/04 03:52:58;;;;;;;10.95;7.80;;;7.90;87.90;;;;;;4980986;28;20525;-60
2023/01/04 03:55:26;;;;;;;13.35;9.00;;;7.90;87.80;;;;;;4983256;28;20035;-59
2023/01/04 03:57:52;;;;;;;12.82;8.40;;;7.90;87.90;;;;;;4981332;28;20039;-60
2023/01/04 04:00:18;;;;;;;12.25;8.55;;;7.90;87.90;;;;;;4980649;28;20538;-61
2023/01/04 04:02:46;;;;;;;12.90;8.93;;;7.90;88.00;;;;;;4984009;28;20042;-60
2023/01/04 04:10:48;;;;;;;12.10;8.30;;;8.00;88.00;;;;;;4980054;28;20045;-60
2023/01/04 04:13:13;;;;;;;11.45;8.13;;;8.00;88.00;;;;;;4984603;28;20046;-62
2023/01/04 04:15:39;;;;;;;11.50;8.25;;;8.00;88.00;;;;;;4985715;28;20034;-62
2023/01/04 04:18:05;;;;;;;11.65;7.50;;;8.00;88.00;;;;;;4984313;28;20030;-62
2023/01/04 04:20:31;;;;;;;10.30;7.07;;;8.00;88.00;;;;;;4980079;28;20044;-62
2023/01/04 04:22:56;;;;;;;9.65;6.95;;;8.00;88.00;;;;;;4984649;28;20118;-60
2023/01/04 04:25:22;;;;;;;8.95;6.65;;;8.00;87.80;;;;;;4984071;28;20513;-61
2023/01/04 04:27:47;;;;;;;9.82;6.50;;;8.00;87.80;;;;;;4984603;28;20041;-59
2023/01/04 04:30:13;;;;;;;8.88;6.38;;;8.00;87.80;;;;;;4984274;28;20039;-59
2023/01/04 04:32:39;;;;;;;8.85;6.47;;;8.00;87.80;;;;;;4984400;28;20502;-62
2023/01/04 04:35:04;;;;;;;10.73;6.65;;;8.00;87.60;;;;;;4985540;28;20041;-62
2023/01/04 04:37:31;;;;;;;9.20;6.20;;;8.00;87.60;;;;;;4984870;28;20042;-58
2023/01/04 04:39:57;;;;;;;10.48;6.43;;;8.00;87.40;;;;;;4984233;28;20027;-61
2023/01/04 04:42:23;;;;;;;9.02;6.30;;;8.00;87.40;;;;;;4984715;28;20046;-60
2023/01/04 04:44:48;;;;;;;9.27;6.50;;;8.10;87.40;;;;;;4984611;28;20034;-61
2023/01/04 04:47:14;;;;;;;9.70;6.93;;;8.00;87.30;;;;;;4985843;28;20511;-60
2023/01/04 04:49:40;;;;;;;11.70;7.28;;;8.10;87.30;;;;;;4981599;28;20042;-61
2023/01/04 04:52:05;;;;;;;10.00;6.82;;;8.10;87.30;;;;;;4983402;28;20042;-61
2023/01/04 04:54:31;;;;;;;10.90;6.93;;;8.10;87.20;;;;;;4984633;28;20583;-60
2023/01/04 04:56:56;;;;;;;10.48;7.30;;;8.10;87.20;;;;;;4984139;28;20053;-62
2023/01/04 04:59:22;;;;;;;10.63;6.65;;;8.10;87.30;;;;;;4983918;28;20065;-60
2023/01/04 05:01:47;;;;;;;11.23;7.38;;;8.10;87.10;;;;;;4984038;28;20039;-61
2023/01/04 05:04:15;;;;;;;10.23;7.18;;;8.10;87.10;;;;;;4983653;28;20418;-61
2023/01/04 05:06:42;;;;;;;9.90;7.05;;;8.10;87.00;;;;;;4984128;28;20409;-60
2023/01/04 05:09:09;;;;;;;17.73;9.90;;;8.10;86.90;;;;;;4982111;28;20490;-60
2023/01/04 05:14:18;;;;;;;12.85;9.10;;;8.10;86.90;;;;;;4983622;28;20049;-62
2023/01/04 05:16:44;;;;;;;12.00;7.90;;;8.10;86.90;;;;;;4983129;28;20043;-60
2023/01/04 05:19:10;;;;;;;16.10;10.90;;;8.10;86.70;;;;;;4981635;28;20110;-59
2023/01/04 05:21:35;;;;;;;12.13;8.07;;;8.10;86.70;;;;;;4985162;28;20035;-60
2023/01/04 05:24:01;;;;;;;11.80;8.00;;;8.10;86.70;;;;;;4988349;28;20041;-61
2023/01/04 05:26:26;;;;;;;11.65;8.48;;;8.10;86.60;;;;;;4986084;28;20038;-59
2023/01/04 05:28:52;;;;;;;10.85;7.75;;;8.10;86.60;;;;;;4987853;28;20490;-59
2023/01/04 05:31:17;;;;;;;11.35;7.72;;;8.10;86.50;;;;;;4987596;28;20054;-61
2023/01/04 05:33:43;;;;;;;13.27;9.73;;;8.10;86.50;;;;;;4988696;28;20475;-62
2023/01/04 05:36:09;;;;;;;11.77;7.95;;;8.10;86.60;;;;;;4987778;28;20078;-60
2023/01/04 05:38:34;;;;;;;17.00;12.18;;;8.10;86.60;;;;;;4986952;28;20361;-61
2023/01/04 05:41:00;;;;;;;16.85;12.15;;;8.10;86.60;;;;;;4988381;28;20058;-58
2023/01/04 05:43:25;;;;;;;21.88;13.63;;;8.10;86.60;;;;;;4986049;28;20089;-61
2023/01/04 05:45:53;;;;;;;13.63;9.60;;;8.10;86.70;;;;;;4988054;28;20391;-61
2023/01/04 05:48:19;;;;;;;12.57;8.32;;;8.10;86.60;;;;;;4986562;28;20038;-59
2023/01/04 05:50:46;;;;;;;11.80;8.50;;;8.20;86.70;;;;;;4987684;28;20522;-59
2023/01/04 05:53:13;;;;;;;11.90;8.07;;;8.20;86.60;;;;;;4986025;28;20058;-61
2023/01/04 05:55:39;;;;;;;12.10;8.43;;;8.20;86.70;;;;;;4987982;28;20034;-61
2023/01/04 05:58:04;;;;;;;22.45;13.80;;;8.20;86.60;;;;;;4987544;28;21644;-60
2023/01/04 06:00:30;;;;;;;15.40;9.98;;;8.20;86.60;;;;;;4986657;28;20034;-60
2023/01/04 06:02:56;;;;;;;12.38;7.47;;;8.20;86.60;;;;;;4988670;28;20140;-59
2023/01/04 06:05:23;;;;;;;9.75;6.63;;;8.20;86.50;;;;;;4985601;28;20042;-59
2023/01/04 06:07:49;;;;;;;9.52;6.47;;;8.20;86.40;;;;;;4987196;28;20038;-59
2023/01/04 06:10:14;;;;;;;7.70;5.68;;;8.20;86.40;;;;;;4986096;28;20399;-59
2023/01/04 06:12:40;;;;;;;8.15;5.75;;;8.20;86.20;;;;;;4983838;28;20038;-61
2023/01/04 06:15:07;;;;;;;9.27;7.13;;;8.20;86.20;;;;;;4987873;28;20038;-62
2023/01/04 06:17:33;;;;;;;10.77;7.78;;;8.20;86.20;;;;;;4986045;28;20181;-62
2023/01/04 06:19:59;;;;;;;7.75;5.80;;;8.20;86.20;;;;;;4985133;28;20421;-62
2023/01/04 06:22:26;;;;;;;11.32;7.55;;;8.20;86.20;;;;;;4985160;28;20035;-62
2023/01/04 06:24:52;;;;;;;11.88;8.70;;;8.20;86.20;;;;;;4977015;28;20036;-62
2023/01/04 06:27:17;;;;;;;8.88;6.10;;;8.20;86.30;;;;;;4986835;28;20063;-62
2023/01/04 06:29:43;;;;;;;8.13;6.07;;;8.10;86.20;;;;;;4987890;28;20513;-62
2023/01/04 06:32:09;;;;;;;8.85;7.30;;;8.10;86.20;;;;;;4986819;28;20038;-60
2023/01/04 06:34:34;;;;;;;7.43;5.63;;;8.20;86.20;;;;;;4985098;28;20026;-61
2023/01/04 06:37:00;;;;;;;7.97;6.20;;;8.20;86.20;;;;;;4986467;28;20042;-61
2023/01/04 06:39:26;;;;;;;8.05;6.05;;;8.20;86.20;;;;;;4985498;28;20051;-61
2023/01/04 06:41:52;;;;;;;7.68;5.47;;;8.20;86.20;;;;;;4987192;28;20100;-62
2023/01/04 06:44:17;;;;;;;9.68;6.65;;;8.20;86.20;;;;;;4985879;28;20049;-60
2023/01/04 06:46:43;;;;;;;8.77;6.72;;;8.10;86.20;;;;;;4986736;28;20091;-61
2023/01/04 06:49:09;;;;;;;8.27;6.53;;;8.10;86.30;;;;;;4985516;28;20386;-59
2023/01/04 06:51:34;;;;;;;8.98;6.85;;;8.10;86.40;;;;;;4987352;28;20105;-62
2023/01/04 06:54:00;;;;;;;8.43;6.45;;;8.10;86.50;;;;;;4988437;28;20026;-59
2023/01/04 06:56:25;;;;;;;8.18;5.85;;;8.10;86.60;;;;;;4985503;28;20042;-59
2023/01/04 06:58:51;;;;;;;9.63;6.70;;;8.10;86.60;;;;;;4985784;28;20046;-62
2023/01/04 07:01:16;;;;;;;9.38;6.53;;;8.20;86.80;;;;;;4985973;28;20490;-61
2023/01/04 07:03:42;;;;;;;10.00;6.50;;;8.10;86.80;;;;;;4985214;28;20039;-61
2023/01/04 07:06:09;;;;;;;9.77;6.93;;;8.20;87.00;;;;;;4986659;28;20450;-59
2023/01/04 07:08:35;;;;;;;9.70;6.85;;;8.20;87.00;;;;;;4984105;28;20030;-62
2023/01/04 07:11:01;;;;;;;8.27;6.70;;;8.20;87.10;;;;;;4982314;28;20038;-60
2023/01/04 07:13:26;;;;;;;8.93;6.85;;;8.20;87.10;;;;;;4983511;28;20492;-61
2023/01/04 07:15:52;;;;;;;8.88;6.68;;;8.20;87.00;;;;;;4987354;28;20061;-57
2023/01/04 07:18:18;;;;;;;9.43;7.03;;;8.20;87.00;;;;;;4983997;28;20518;-59
2023/01/04 07:20:43;;;;;;;9.85;7.45;;;8.20;87.00;;;;;;4981798;28;20072;-59
2023/01/04 07:23:09;;;;;;;8.23;6.55;;;8.30;87.10;;;;;;4986089;28;20041;-62
2023/01/04 07:25:35;;;;;;;9.70;6.90;;;8.30;87.10;;;;;;4984910;28;20030;-58
2023/01/04 07:28:01;;;;;;;10.32;7.22;;;8.30;87.10;;;;;;4987570;28;20039;-60
2023/01/04 07:30:27;;;;;;;9.75;7.35;;;8.30;87.10;;;;;;4984174;28;20296;-59
2023/01/04 07:32:54;;;;;;;10.88;7.65;;;8.30;87.10;;;;;;4984728;28;20042;-60
2023/01/04 07:35:20;;;;;;;12.02;8.93;;;8.30;87.10;;;;;;4982374;28;20420;-59
2023/01/04 07:37:46;;;;;;;11.50;7.85;;;8.30;87.10;;;;;;4986044;28;20498;-60
2023/01/04 07:40:12;;;;;;;13.55;8.75;;;8.30;87.00;;;;;;4982982;28;20042;-58
2023/01/04 07:42:38;;;;;;;10.48;7.78;;;8.30;86.90;;;;;;4984434;28;20044;-59
2023/01/04 07:45:04;;;;;;;13.18;9.15;;;8.30;87.00;;;;;;4984377;28;20049;-62
2023/01/04 07:47:30;;;;;;;13.65;8.80;;;8.30;87.10;;;;;;4983621;28;20045;-60
2023/01/04 07:49:56;;;;;;;12.73;8.52;;;8.30;87.10;;;;;;4960185;28;20034;-60
2023/01/04 07:52:22;;;;;;;12.07;8.40;;;8.30;87.10;;;;;;4972341;28;20543;-61
2023/01/04 07:54:47;;;;;;;11.50;8.00;;;8.30;87.10;;;;;;4971744;28;20699;-60
2023/01/04 07:57:13;;;;;;;12.00;7.63;;;8.30;87.30;;;;;;4978020;28;20051;-60
2023/01/04 07:59:38;;;;;;;11.88;8.20;;;8.30;87.30;;;;;;4978591;28;20073;-60
2023/01/04 08:02:04;;;;;;;13.07;8.55;;;8.30;87.30;;;;;;4974071;28;20463;-60
2023/01/04 08:04:30;;;;;;;13.73;8.27;;;8.30;87.30;;;;;;4968462;28;20529;-61
2023/01/04 08:06:55;;;;;;;11.95;7.95;;;8.30;87.30;;;;;;4982282;28;20101;-61
2023/01/04 08:09:21;;;;;;;11.60;8.27;;;8.30;87.30;;;;;;4979121;28;20069;-62
2023/01/04 08:11:46;;;;;;;10.77;8.05;;;8.30;87.20;;;;;;4978088;28;20045;-62
2023/01/04 08:14:12;;;;;;;12.07;7.63;;;8.30;87.20;;;;;;4979360;28;20114;-61
2023/01/04 08:16:40;;;;;;;10.98;8.30;;;8.30;87.10;;;;;;4979645;28;20073;-62
2023/01/04 08:19:18;;;;;;;12.05;7.30;;;8.30;87.20;;;;;;4974530;28;20113;-62
2023/01/04 08:21:44;;;;;;;10.68;7.68;;;8.40;87.50;;;;;;4978399;28;20030;-62
2023/01/04 08:24:15;;;;;;;10.80;7.50;;;8.40;87.20;;;;;;4973073;28;20031;-62
2023/01/04 08:26:40;;;;;;;12.65;7.80;;;8.40;87.20;;;;;;4978672;28;20058;-62
2023/01/04 08:29:06;;;;;;;10.60;7.68;;;8.40;87.20;;;;;;4980265;28;20333;-61
2023/01/04 08:31:33;;;;;;;10.38;7.55;;;8.40;87.20;;;;;;4971163;28;20145;-62
2023/01/04 08:34:02;;;;;;;11.63;8.32;;;8.40;87.10;;;;;;4977833;28;20573;-61
2023/01/04 08:36:30;;;;;;;9.40;7.25;;;8.50;87.10;;;;;;4975248;28;20125;-60
2023/01/04 08:39:03;;;;;;;10.00;7.07;;;8.40;87.00;;;;;;4984724;28;20494;-61
2023/01/04 08:41:30;;;;;;;9.40;7.07;;;8.40;86.90;;;;;;4967783;28;20077;-62
2023/01/04 08:43:56;;;;;;;9.40;7.00;;;8.50;86.90;;;;;;4978299;28;20120;-61
2023/01/04 08:46:21;;;;;;;10.00;6.95;;;8.50;86.90;;;;;;4980453;28;20413;-61
2023/01/04 08:48:47;;;;;;;8.40;6.60;;;8.60;86.90;;;;;;4978108;28;20047;-61
2023/01/04 08:51:15;;;;;;;8.73;6.43;;;8.60;86.80;;;;;;4971363;28;20461;-61
2023/01/04 08:53:40;;;;;;;8.40;6.43;;;8.60;86.70;;;;;;4975088;28;20039;-59
2023/01/04 08:56:06;;;;;;;9.73;7.20;;;8.70;86.70;;;;;;4974263;28;20406;-62
2023/01/04 08:58:33;;;;;;;8.57;6.18;;;8.70;86.60;;;;;;4980696;28;20176;-60
2023/01/04 09:01:04;;;;;;;8.45;6.18;;;8.70;86.50;;;;;;4980940;28;20043;-62
2023/01/04 09:03:30;;;;;;;7.70;5.90;;;8.70;86.40;;;;;;4964845;28;20781;-61
2023/01/04 09:06:06;;;;;;;7.95;5.88;;;8.80;86.30;;;;;;4968068;28;20140;-60
2023/01/04 09:08:32;;;;;;;8.00;5.50;;;8.80;86.00;;;;;;4976839;28;20038;-62
2023/01/04 09:11:05;;;;;;;7.57;5.85;;;8.80;86.00;;;;;;4973920;28;20043;-62
2023/01/04 09:13:32;;;;;;;8.15;6.10;;;8.80;85.90;;;;;;4977073;28;20081;-60
2023/01/04 09:16:07;;;;;;;7.15;5.57;;;8.90;85.90;;;;;;4974575;28;20030;-61
2023/01/04 09:18:33;;;;;;;;;;;8.90;85.60;;;;;;4975019;28;20060;-61
2023/01/04 09:21:03;;;;;;;7.43;5.30;;;8.90;85.50;;;;;;4976386;28;19913;-61
2023/01/04 09:23:30;;;;;;;6.90;5.18;;;8.90;85.50;;;;;;4975121;28;20520;-61
2023/01/04 09:25:55;;;;;;;7.35;5.32;;;8.90;85.30;;;;;;4973779;28;20125;-61
2023/01/04 09:28:21;;;;;;;6.30;5.03;;;9.00;85.30;;;;;;4975486;28;20050;-60
2023/01/04 09:30:46;;;;;;;5.78;4.78;;;9.00;85.40;;;;;;4974933;28;20062;-61
2023/01/04 09:33:12;;;;;;;8.73;4.72;;;9.00;85.40;;;;;;4977917;28;20506;-61
2023/01/04 09:35:37;;;;;;;5.45;4.40;;;9.00;85.50;;;;;;4974394;28;20038;-62
2023/01/04 09:38:03;;;;;;;5.93;4.70;;;9.10;85.70;;;;;;4973980;28;20042;-62
2023/01/04 09:40:49;;;;;;;6.47;4.68;;;9.00;85.30;;;;;;4970877;28;20034;-61
2023/01/04 09:43:19;;;;;;;6.50;5.00;;;9.10;85.40;;;;;;4975051;28;20042;-63
2023/01/04 09:45:48;;;;;;;5.75;4.68;;;9.10;85.40;;;;;;4972071;28;20045;-61
2023/01/04 09:48:19;;;;;;;6.32;4.72;;;9.10;85.30;;;;;;4977339;28;20537;-60
2023/01/04 09:50:59;;;;;;;6.05;4.68;;;9.10;85.10;;;;;;4972931;28;20043;-60
2023/01/04 09:53:38;;;;;;;6.35;4.53;;;9.10;85.20;;;;;;4976186;28;20047;-61
2023/01/04 09:56:26;;;;;;;4.95;4.38;;;9.10;85.10;;;;;;4974356;28;20045;-61
2023/01/04 09:58:53;;;;;;;8.38;4.78;;;9.10;85.00;;;;;;4968353;28;20034;-62
2023/01/04 10:01:32;;;;;;;5.68;4.50;;;9.10;85.00;;;;;;4976944;28;20417;-62
2023/01/04 10:04:06;;;;;;;6.65;4.35;;;9.20;85.00;;;;;;4976650;28;20043;-62
2023/01/04 10:06:33;;;;;;;4.97;4.15;;;9.10;85.00;;;;;;4973459;28;20034;-62
2023/01/04 10:09:08;;;;;;;5.63;4.47;;;9.10;84.90;;;;;;4976194;28;20907;-62
2023/01/04 10:11:43;;;;;;;5.55;4.75;;;9.10;84.90;;;;;;4975454;28;20034;-63
2023/01/04 10:14:27;;;;;;;7.72;4.32;;;9.10;85.10;;;;;;4977666;28;20033;-63
2023/01/04 10:16:52;;;;;;;5.75;4.32;;;9.10;85.10;;;;;;4978513;28;20043;-63
2023/01/04 10:19:21;;;;;;;7.75;4.78;;;9.10;85.20;;;;;;4975583;28;20061;-64
2023/01/04 10:21:54;;;;;;;7.68;5.13;;;9.10;85.30;;;;;;4976366;28;20117;-62
2023/01/04 10:24:42;;;;;;;7.78;5.78;;;9.10;85.40;;;;;;4978005;28;20035;-63
2023/01/04 10:27:35;;;;;;;7.20;5.20;;;9.00;85.70;;;;;;4969999;28;20060;-64
2023/01/04 10:30:29;;;;;;;5.53;3.97;;;9.00;85.90;;;;;;4976807;28;20043;-62
2023/01/04 10:33:11;;;;;;;6.65;4.55;;;9.00;86.00;;;;;;4979239;28;20172;-62
2023/01/04 10:35:39;;;;;;;5.82;4.38;;;9.00;86.40;;;;;;4980104;28;20089;-63
2023/01/04 10:38:16;;;;;;;6.25;5.20;;;9.00;86.20;;;;;;4970093;28;20473;-63
2023/01/04 10:40:45;;;;;;;8.50;6.32;;;9.00;86.30;;;;;;4978086;28;20046;-63
2023/01/04 10:43:11;;;;;;;7.57;6.13;;;9.00;86.30;;;;;;4979453;28;20045;-63
2023/01/04 10:45:48;;;;;;;8.38;6.60;;;9.00;86.40;;;;;;4972759;28;20047;-63
2023/01/04 10:48:21;;;;;;;10.45;6.85;;;9.00;86.50;;;;;;4976445;28;20458;-63
2023/01/04 10:50:55;;;;;;;8.30;6.57;;;9.00;86.60;;;;;;4974648;28;20042;-63
2023/01/04 10:53:37;;;;;;;7.18;5.75;;;9.10;86.60;;;;;;4974683;28;20058;-60
2023/01/04 10:56:32;;;;;;;7.35;6.10;;;9.10;86.40;;;;;;4977430;28;20398;-62
2023/01/04 10:59:02;;;;;;;9.20;5.95;;;9.10;86.20;;;;;;4975461;28;20039;-62
2023/01/04 11:01:34;;;;;;;6.88;5.38;;;9.10;86.10;;;;;;4973215;28;20105;-63
2023/01/04 11:04:07;;;;;;;7.40;5.55;;;9.10;86.10;;;;;;4967190;28;20173;-61
2023/01/04 11:06:45;;;;;;;8.07;6.03;;;9.10;86.30;;;;;;4980052;28;20046;-62
2023/01/04 11:09:22;;;;;;;7.35;5.65;;;9.10;86.40;;;;;;4980481;28;20030;-62
2023/01/04 11:11:49;;;;;;;10.30;6.75;;;9.10;86.30;;;;;;4984285;28;20113;-61
2023/01/04 11:14:15;;;;;;;11.82;7.57;;;9.10;86.30;;;;;;4986518;28;20113;-62
2023/01/04 11:16:47;;;;;;;9.98;6.63;;;9.20;86.30;;;;;;4986237;28;20118;-60
2023/01/04 11:19:14;;;;;;;8.70;6.57;;;9.10;86.30;;;;;;4983686;28;20093;-60
2023/01/04 11:22:00;;;;;;;9.57;7.25;;;9.20;86.40;;;;;;4986295;28;20089;-62
2023/01/04 11:24:30;;;;;;;9.90;7.63;;;9.20;86.20;;;;;;4984589;28;20038;-60
2023/01/04 11:26:58;;;;;;;6.47;5.70;;;9.20;86.10;;;;;;4986566;28;20589;-62
2023/01/04 11:29:48;;;;;;;5.80;4.85;;;9.20;86.00;;;;;;4982295;28;20042;-62
2023/01/04 11:32:36;;;;;;;5.95;4.40;;;9.20;85.60;;;;;;4983609;28;20038;-61
2023/01/04 11:35:02;;;;;;;4.65;3.83;;;9.20;85.30;;;;;;4986150;28;20455;-59
2023/01/04 11:37:32;;;;;;;4.55;3.38;;;9.20;85.30;;;;;;4983794;28;20517;-59
2023/01/04 11:40:16;;;;;;;4.90;3.78;;;9.20;85.50;;;;;;4984948;28;20529;-61
2023/01/04 11:42:47;;;;;;;4.03;3.28;;;9.20;84.30;;;;;;4983336;28;20034;-61
2023/01/04 11:45:27;;;;;;;4.53;2.80;;;9.20;84.50;;;;;;4984451;28;20469;-61
2023/01/04 11:47:55;;;;;;;4.65;3.35;;;9.30;83.70;;;;;;4983296;28;20426;-62
2023/01/04 11:50:34;;;;;;;4.85;3.83;;;9.30;83.80;;;;;;4984308;28;20090;-62
2023/01/04 11:53:01;;;;;;;4.15;3.10;;;9.30;83.40;;;;;;4984848;28;20038;-60
2023/01/04 11:55:29;;;;;;;3.30;2.83;;;9.40;83.60;;;;;;4981002;28;20037;-62
2023/01/04 11:58:15;;;;;;;3.20;2.70;;;9.40;83.50;;;;;;4982594;28;20034;-61
2023/01/04 12:00:58;;;;;;;3.05;2.58;;;9.40;83.00;;;;;;4983721;28;20093;-61
2023/01/04 12:03:26;;;;;;;2.80;2.50;;;9.40;82.40;;;;;;4986133;28;20080;-62
2023/01/04 12:05:52;;;;;;;3.38;2.63;;;9.50;83.10;;;;;;4984611;28;20062;-59
2023/01/04 12:08:26;;;;;;;3.53;2.47;;;9.50;82.60;;;;;;4983841;28;20061;-61
2023/01/04 12:10:52;;;;;;;3.13;2.67;;;9.50;82.30;;;;;;4977880;28;20499;-63
2023/01/04 12:13:17;;;;;;;2.50;2.22;;;9.60;82.60;;;;;;4980673;28;20045;-62
2023/01/04 12:16:06;;;;;;;2.85;2.35;;;9.50;82.40;;;;;;4984143;28;20041;-63
2023/01/04 12:18:38;;;;;;;2.55;2.35;;;9.60;82.10;;;;;;4978990;28;20228;-63
2023/01/04 12:21:04;;;;;;;4.03;3.03;;;9.60;81.20;;;;;;4981697;28;20030;-63
2023/01/04 12:23:32;;;;;;;2.88;2.58;;;9.60;81.60;;;;;;4984563;28;20144;-61
2023/01/04 12:25:58;;;;;;;3.22;2.35;;;9.70;81.40;;;;;;4984938;28;20633;-61
2023/01/04 12:28:27;;;;;;;2.53;2.22;;;9.70;81.30;;;;;;4980883;28;20304;-61
2023/01/04 12:30:52;;;;;;;3.63;2.70;;;9.70;81.70;;;;;;4980868;28;20046;-62
2023/01/04 12:33:37;;;;;;;2.75;2.47;;;9.70;81.00;;;;;;4981899;28;20050;-61
2023/01/04 12:36:05;;;;;;;2.88;2.50;;;9.80;80.40;;;;;;4982928;28;20035;-61
2023/01/04 12:38:58;;;;;;;2.95;2.65;;;9.80;80.50;;;;;;4984293;28;20130;-62
2023/01/04 12:41:59;;;;;;;3.92;2.40;;;9.80;79.60;;;;;;4982775;28;20466;-63
2023/01/04 12:44:41;;;;;;;3.03;2.50;;;9.90;79.80;;;;;;4982500;28;20510;-60
2023/01/04 12:50:10;;;;;;;2.63;2.42;;;9.90;79.80;;;;;;4980790;28;20451;-62
2023/01/04 12:52:48;;;;;;;3.95;2.92;;;10.00;79.80;;;;;;4979697;28;20259;-62
2023/01/04 12:55:26;;;;;;;4.22;2.90;;;10.00;79.40;;;;;;4982586;28;20046;-62
2023/01/04 12:57:52;;;;;;;5.72;2.90;;;10.00;78.90;;;;;;4982166;28;20034;-61
2023/01/04 13:00:17;;;;;;;2.85;2.55;;;10.10;79.70;;;;;;4983415;28;20081;-61
2023/01/04 13:02:49;;;;;;;3.85;2.67;;;10.10;79.70;;;;;;4981365;28;20041;-61
2023/01/04 13:05:17;;;;;;;3.90;3.20;;;10.10;79.60;;;;;;4983077;28;20042;-60
2023/01/04 13:07:52;;;;;;;3.67;3.00;;;10.20;79.70;;;;;;4984154;28;20049;-61
2023/01/04 13:10:17;;;;;;;3.63;3.00;;;10.20;79.20;;;;;;4984140;28;20522;-62
2023/01/04 13:12:49;;;;;;;4.63;3.05;;;10.20;79.60;;;;;;4979773;28;20060;-63
2023/01/04 13:15:30;;;;;;;20.13;3.72;;;10.30;79.50;;;;;;4982124;28;20053;-61
2023/01/04 13:17:56;;;;;;;6.43;3.50;;;10.30;79.00;;;;;;4984471;28;20126;-60
2023/01/04 13:20:24;;;;;;;9.75;3.10;;;10.30;79.20;;;;;;4982539;28;20453;-60
2023/01/04 13:22:53;;;;;;;4.57;3.10;;;10.30;79.30;;;;;;4982826;28;20040;-60
2023/01/04 13:25:20;;;;;;;4.88;3.28;;;10.30;79.20;;;;;;4981088;28;20497;-62
2023/01/04 13:27:55;;;;;;;4.03;3.35;;;10.40;79.30;;;;;;4981995;28;20053;-62
2023/01/04 13:30:35;;;;;;;3.08;2.75;;;10.40;78.90;;;;;;4982611;28;20034;-61
2023/01/04 13:33:12;;;;;;;3.40;2.80;;;10.30;78.70;;;;;;4981372;28;20035;-61
2023/01/04 13:35:38;;;;;;;3.38;2.90;;;10.40;78.60;;;;;;4979976;28;20042;-61
2023/01/04 13:38:14;;;;;;;4.32;3.05;;;10.40;78.90;;;;;;4980981;28;20093;-60
2023/01/04 13:40:44;;;;;;;5.78;2.70;;;10.40;78.70;;;;;;4981363;28;20031;-60
2023/01/04 13:43:34;;;;;;;3.97;2.90;;;10.40;78.40;;;;;;4983889;28;20486;-61
2023/01/04 13:46:08;;;;;;;3.97;2.85;;;10.40;78.20;;;;;;4983536;28;20039;-63
2023/01/04 13:48:40;;;;;;;3.17;2.80;;;10.40;78.60;;;;;;4974004;28;20061;-64
2023/01/04 13:51:13;;;;;;;3.42;2.90;;;10.40;78.60;;;;;;4981780;28;20597;-61
2023/01/04 13:53:39;;;;;;;3.83;3.03;;;10.50;78.40;;;;;;4982553;28;20125;-61
2023/01/04 13:56:16;;;;;;;3.83;2.70;;;10.50;78.70;;;;;;4980154;28;20544;-60
2023/01/04 13:58:42;;;;;;;72.30;24.98;;;10.50;78.70;;;;;;4978585;28;20046;-62